Time;durP1;ratioP1;P1;durP2;ratioP2;P2;SDS_P1;SDS_P2;PMS_P1;PMS_P2;Temp;Humidity;BMP_temperature;BMP_pressure;BME280_temperature;BME280_humidity;BME280_pressure;Samples;Min_cycle;Max_cycle;Signal;HPM_P1;HPM_P2
2022/12/23 00:00:23;;;;;;;2.20;1.70;;;27.00;94.90;;;;;;5078966;28;20401;-84
2022/12/23 00:02:50;;;;;;;3.90;1.85;;;27.20;94.30;;;;;;5049540;28;20467;-82
2022/12/23 00:05:17;;;;;;;3.78;1.90;;;27.40;93.70;;;;;;5074681;28;20876;-83
2022/12/23 00:07:44;;;;;;;3.35;1.75;;;27.60;94.00;;;;;;5080591;28;20728;-85
2022/12/23 00:10:11;;;;;;;3.45;1.90;;;28.00;93.40;;;;;;5092760;28;20377;-83
2022/12/23 00:15:23;;;;;;;4.30;1.90;;;28.40;91.50;;;;;;5092706;28;20432;-86
2022/12/23 00:17:50;;;;;;;2.58;1.77;;;28.50;90.80;;;;;;5092896;28;20393;-83
2022/12/23 00:20:17;;;;;;;2.95;1.83;;;28.50;90.80;;;;;;5091675;28;20431;-84
2022/12/23 00:25:43;;;;;;;3.53;1.80;;;28.40;89.70;;;;;;5093662;28;20399;-85
2022/12/23 00:28:15;;;;;;;3.80;2.10;;;28.20;90.20;;;;;;5073198;28;20378;-85
2022/12/23 00:30:50;;;;;;;2.58;1.67;;;28.40;89.00;;;;;;5093027;28;20372;-84
2022/12/23 00:33:22;;;;;;;3.47;1.80;;;28.40;88.30;;;;;;5092243;28;20376;-84
2022/12/23 00:35:50;;;;;;;3.05;1.67;;;28.50;85.60;;;;;;5092838;28;20924;-84
2022/12/23 00:42:52;;;;;;;2.90;1.60;;;28.60;88.10;;;;;;5092614;28;20383;-86
2022/12/23 00:43:58;;;;;;;2.80;1.70;;;28.90;84.40;;;;;;5079779;28;20416;-84
2022/12/23 00:46:25;;;;;;;2.35;1.80;;;29.20;85.20;;;;;;5092319;28;20384;-86
2022/12/23 00:51:38;;;;;;;3.47;1.70;;;29.10;83.30;;;;;;5070787;28;20709;-88
2022/12/23 00:54:05;;;;;;;2.72;1.70;;;29.50;83.30;;;;;;5092998;28;20369;-88
2022/12/23 00:56:32;;;;;;;4.90;2.00;;;29.60;82.10;;;;;;5083330;28;20408;-84
2022/12/23 00:58:59;;;;;;;4.43;1.77;;;29.80;80.10;;;;;;5071892;28;20504;-87
2022/12/23 01:06:59;;;;;;;3.97;1.80;;;30.10;79.20;;;;;;5072813;28;20435;-84
2022/12/23 01:09:26;;;;;;;3.37;1.90;;;30.40;77.60;;;;;;5073687;28;20385;-86
2022/12/23 01:11:53;;;;;;;2.88;1.50;;;30.40;78.30;;;;;;5072853;28;20854;-88
2022/12/23 01:14:21;;;;;;;1.90;1.50;;;30.50;76.10;;;;;;5072577;28;20374;-84
2022/12/23 01:16:48;;;;;;;1.80;1.42;;;30.60;76.10;;;;;;5074094;28;20389;-86
2022/12/23 01:19:15;;;;;;;3.38;1.60;;;30.90;74.90;;;;;;5083704;28;20400;-88
2022/12/23 01:21:42;;;;;;;3.30;1.60;;;31.00;73.40;;;;;;5086169;28;20385;-85
2022/12/23 01:24:09;;;;;;;1.75;1.42;;;30.80;74.10;;;;;;5072818;28;20366;-84
2022/12/23 01:26:36;;;;;;;2.13;1.40;;;31.10;73.00;;;;;;5071032;28;20810;-84
2022/12/23 01:29:03;;;;;;;3.97;1.60;;;31.20;71.80;;;;;;5063096;28;20487;-86
2022/12/23 01:31:30;;;;;;;1.75;1.52;;;31.20;70.40;;;;;;5072413;28;20369;-83
2022/12/23 01:33:57;;;;;;;3.30;1.52;;;31.20;71.60;;;;;;5072396;28;20369;-87
2022/12/23 01:36:24;;;;;;;5.43;1.75;;;31.60;70.90;;;;;;5054984;28;20434;-86
2022/12/23 01:38:51;;;;;;;3.13;1.52;;;32.00;70.00;;;;;;5072927;28;20381;-83
2022/12/23 01:44:51;;;;;;;6.40;1.60;;;32.10;68.70;;;;;;5074007;28;20365;-84
2022/12/23 01:47:39;;;;;;;3.38;1.50;;;32.00;68.00;;;;;;5072761;28;20373;-85
2022/12/23 01:50:19;;;;;;;2.80;1.52;;;31.80;67.30;;;;;;5062274;28;20460;-88
2022/12/23 01:52:54;;;;;;;2.60;1.73;;;31.70;69.60;;;;;;5073138;28;20854;-83
2022/12/23 01:55:24;;;;;;;2.25;1.60;;;32.10;68.80;;;;;;5072268;28;20389;-85
2022/12/23 01:57:55;;;;;;;3.10;1.50;;;32.70;67.60;;;;;;5073280;28;20377;-86
2022/12/23 02:09:15;;;;;;;3.47;1.60;;;34.60;61.20;;;;;;5079421;28;20434;-85
2022/12/23 02:11:42;;;;;;;1.70;1.30;;;35.00;57.90;;;;;;5081192;28;20368;-85
2022/12/23 02:17:33;;;;;;;3.33;1.40;;;35.90;56.30;;;;;;5090886;28;20501;-89
2022/12/23 02:21:01;;;;;;;1.90;1.30;;;36.10;54.40;;;;;;4993869;28;20424;-87
2022/12/23 02:24:01;;;;;;;2.30;1.30;;;35.10;55.10;;;;;;4819402;29;20407;-88
2022/12/23 02:27:01;;;;;;;2.23;1.23;;;34.30;56.60;;;;;;4819832;29;20404;-87
2022/12/23 02:30:02;;;;;;;1.75;1.30;;;34.40;54.90;;;;;;4820107;29;20857;-85
2022/12/23 02:32:37;;;;;;;2.67;1.55;;;33.30;55.90;;;;;;4804538;29;20411;-86
2022/12/23 02:35:45;;;;;;;2.88;1.60;;;32.30;58.60;;;;;;4819623;29;20404;-85
2022/12/23 02:38:31;;;;;;;2.70;1.40;;;32.30;59.30;;;;;;4819965;29;20388;-86
2022/12/23 02:41:07;;;;;;;3.45;1.40;;;33.50;58.00;;;;;;4819430;29;20463;-87
2022/12/23 02:43:56;;;;;;;1.85;1.35;;;33.90;57.10;;;;;;4819603;29;20400;-85
2022/12/23 02:46:37;;;;;;;2.60;1.43;;;35.10;56.50;;;;;;4819468;29;20441;-83
2022/12/23 02:49:19;;;;;;;2.73;1.50;;;36.50;54.40;;;;;;4819677;29;20406;-88
2022/12/23 02:51:53;;;;;;;2.30;1.45;;;37.50;52.40;;;;;;4819609;29;20404;-87
2022/12/23 02:54:31;;;;;;;4.15;1.40;;;38.10;51.20;;;;;;4819370;29;20444;-85
2022/12/23 02:57:03;;;;;;;1.97;1.40;;;37.90;50.00;;;;;;4862642;29;20428;-87
2022/12/23 02:59:36;;;;;;;3.53;1.50;;;36.90;50.40;;;;;;5009506;28;20394;-86
2022/12/23 03:02:03;;;;;;;3.20;1.50;;;35.60;51.90;;;;;;5070283;28;21242;-84
2022/12/23 03:04:30;;;;;;;3.83;1.50;;;34.50;53.10;;;;;;5082888;28;20373;-85
2022/12/23 03:07:00;;;;;;;2.90;1.52;;;33.70;54.20;;;;;;5053216;28;20383;-86
2022/12/23 03:09:43;;;;;;;2.92;1.50;;;33.20;54.90;;;;;;5052913;28;20450;-86
2022/12/23 03:12:51;;;;;;;5.10;1.50;;;32.80;55.40;;;;;;5052805;28;20969;-87
2022/12/23 03:15:51;;;;;;;3.67;1.60;;;32.50;55.90;;;;;;5064891;28;20396;-87
2022/12/23 03:18:30;;;;;;;10.32;2.00;;;32.30;56.30;;;;;;5070715;28;20477;-84
2022/12/23 03:21:09;;;;;;;2.25;1.40;;;32.10;56.80;;;;;;5070099;28;20964;-87
2022/12/23 03:24:01;;;;;;;4.28;1.50;;;32.00;56.90;;;;;;5070068;28;20374;-86
2022/12/23 03:26:35;;;;;;;2.70;1.50;;;31.70;57.70;;;;;;5052701;28;20458;-87
2022/12/23 03:29:34;;;;;;;3.25;1.60;;;31.40;59.00;;;;;;5071061;28;20893;-86
2022/12/23 03:32:04;;;;;;;5.65;1.70;;;31.20;59.30;;;;;;5008891;28;20394;-84
2022/12/23 03:34:36;;;;;;;3.92;1.60;;;31.10;58.70;;;;;;5009778;28;20391;-86
2022/12/23 03:37:08;;;;;;;3.00;1.50;;;31.10;59.70;;;;;;5008997;28;20433;-87
2022/12/23 03:39:53;;;;;;;1.80;1.50;;;32.00;58.70;;;;;;5008078;28;20502;-86
2022/12/23 03:42:39;;;;;;;2.55;1.60;;;33.30;56.60;;;;;;5008130;28;20382;-88
2022/12/23 03:45:15;;;;;;;3.15;1.45;;;33.90;54.80;;;;;;4984529;28;20444;-84
2022/12/23 03:47:51;;;;;;;2.63;1.60;;;33.60;55.00;;;;;;5011447;28;20389;-86
2022/12/23 03:50:21;;;;;;;3.70;1.50;;;34.10;54.80;;;;;;5002509;28;20390;-87
2022/12/23 03:52:56;;;;;;;2.53;1.40;;;34.20;53.70;;;;;;5045381;28;20429;-85
2022/12/23 03:55:31;;;;;;;2.55;1.50;;;34.00;54.70;;;;;;5033954;28;20393;-85
2022/12/23 03:57:58;;;;;;;2.33;1.40;;;35.10;54.00;;;;;;5034782;28;20734;-84
2022/12/23 04:00:29;;;;;;;2.42;1.40;;;36.40;52.30;;;;;;5032543;28;20777;-84
2022/12/23 04:03:10;;;;;;;2.53;1.50;;;37.20;51.20;;;;;;5007729;28;20502;-85
2022/12/23 04:05:40;;;;;;;2.60;1.33;;;37.60;50.00;;;;;;5010901;28;20408;-86
2022/12/23 04:08:19;;;;;;;5.97;2.15;;;38.40;49.70;;;;;;5035623;28;20398;-84
2022/12/23 04:10:46;;;;;;;4.97;2.25;;;39.40;50.60;;;;;;5088688;28;20372;-85
2022/12/23 04:13:13;;;;;;;5.57;2.10;;;39.40;50.70;;;;;;5077604;28;20391;-85
2022/12/23 04:15:41;;;;;;;4.43;2.00;;;38.20;52.10;;;;;;5083144;28;20390;-85
2022/12/23 04:18:10;;;;;;;6.15;2.38;;;37.60;52.70;;;;;;5081996;28;20476;-85
2022/12/23 04:20:37;;;;;;;4.53;2.10;;;37.00;53.70;;;;;;5089170;28;20406;-87
2022/12/23 04:23:04;;;;;;;3.42;2.10;;;36.40;55.10;;;;;;5089399;28;20717;-84
2022/12/23 04:25:31;;;;;;;5.13;2.40;;;35.80;55.90;;;;;;5062660;28;20377;-85
2022/12/23 04:27:58;;;;;;;4.78;2.30;;;35.90;56.90;;;;;;5074419;28;20389;-86
2022/12/23 04:30:25;;;;;;;4.68;2.10;;;36.30;56.10;;;;;;5069706;28;20374;-86
2022/12/23 04:32:52;;;;;;;4.30;2.40;;;35.60;56.10;;;;;;5069553;28;20601;-85
2022/12/23 04:35:20;;;;;;;4.22;2.20;;;35.00;57.20;;;;;;5065327;28;20844;-84
2022/12/23 04:37:47;;;;;;;6.25;2.22;;;35.10;57.70;;;;;;5073224;28;20431;-84
2022/12/23 04:40:14;;;;;;;3.42;2.03;;;35.30;56.20;;;;;;5072556;28;20406;-82
2022/12/23 04:42:41;;;;;;;3.88;2.00;;;35.20;56.20;;;;;;5053123;28;20382;-84
2022/12/23 04:45:08;;;;;;;3.20;2.00;;;34.20;57.50;;;;;;5080865;28;20380;-85
2022/12/23 04:47:35;;;;;;;4.38;1.95;;;33.50;58.20;;;;;;5079854;28;20379;-85
2022/12/23 04:50:02;;;;;;;3.92;2.00;;;33.00;59.40;;;;;;5092601;28;20389;-85
2022/12/23 04:52:29;;;;;;;4.90;2.28;;;32.60;59.80;;;;;;5063246;28;20384;-86
2022/12/23 04:54:56;;;;;;;4.85;2.45;;;32.00;61.10;;;;;;5092402;28;20372;-82
2022/12/23 04:57:23;;;;;;;5.78;2.40;;;31.50;62.50;;;;;;5078178;28;20735;-87
2022/12/23 04:59:50;;;;;;;4.80;2.30;;;32.10;62.20;;;;;;5083083;28;20394;-87
2022/12/23 05:02:17;;;;;;;5.03;2.30;;;32.80;60.60;;;;;;5082586;28;20470;-85
2022/12/23 05:04:44;;;;;;;3.07;1.90;;;33.40;59.60;;;;;;5072745;28;20381;-83
2022/12/23 05:07:11;;;;;;;5.07;2.33;;;33.70;59.10;;;;;;5072522;28;20381;-84
2022/12/23 05:09:38;;;;;;;4.45;2.50;;;34.10;58.50;;;;;;5064067;28;20387;-89
2022/12/23 05:12:05;;;;;;;3.67;2.25;;;34.40;57.90;;;;;;5089150;28;20370;-86
2022/12/23 05:14:32;;;;;;;6.13;2.40;;;34.70;57.30;;;;;;5072590;28;20486;-84
2022/12/23 05:16:59;;;;;;;5.18;2.28;;;34.80;57.00;;;;;;5073115;28;20370;-85
2022/12/23 05:19:26;;;;;;;5.80;2.80;;;34.60;57.50;;;;;;5068094;28;20443;-87
2022/12/23 05:21:53;;;;;;;4.80;2.67;;;34.90;56.80;;;;;;5055897;28;20393;-89
2022/12/23 05:24:19;;;;;;;3.87;2.20;;;35.00;56.30;;;;;;5073073;28;20374;-87
2022/12/23 05:26:49;;;;;;;5.10;2.50;;;35.20;56.20;;;;;;5074053;28;20378;-84
2022/12/23 05:29:16;;;;;;;3.65;2.30;;;35.50;56.10;;;;;;5072957;28;20410;-86
2022/12/23 05:31:43;;;;;;;4.32;2.45;;;35.20;56.30;;;;;;5062988;28;20398;-87
2022/12/23 05:34:10;;;;;;;3.42;2.10;;;35.20;55.70;;;;;;5073586;28;20402;-87
2022/12/23 05:36:37;;;;;;;5.00;2.53;;;35.00;56.20;;;;;;5074082;28;20386;-85
2022/12/23 05:39:04;;;;;;;4.22;2.20;;;34.80;56.00;;;;;;5073251;28;20377;-83
2022/12/23 05:41:31;;;;;;;4.38;2.20;;;34.70;56.00;;;;;;5055719;28;20440;-84
2022/12/23 05:43:58;;;;;;;5.57;2.20;;;34.50;56.60;;;;;;5072780;28;20444;-87
2022/12/23 05:46:25;;;;;;;6.20;2.30;;;34.60;56.80;;;;;;5071230;28;20753;-88
2022/12/23 05:48:52;;;;;;;3.47;2.03;;;34.50;57.10;;;;;;5068003;28;20386;-89
2022/12/23 05:51:19;;;;;;;5.72;2.00;;;34.90;56.00;;;;;;5073503;28;20381;-87
2022/12/23 05:53:46;;;;;;;3.80;1.87;;;35.00;55.50;;;;;;5056616;28;20394;-89
2022/12/23 05:56:13;;;;;;;3.38;2.13;;;34.60;55.60;;;;;;5069212;28;20384;-89
2022/12/23 05:58:39;;;;;;;3.75;2.00;;;33.70;56.80;;;;;;5069100;28;20451;-87
2022/12/23 06:01:06;;;;;;;4.35;1.90;;;32.60;58.80;;;;;;5068969;28;20485;-87
2022/12/23 06:03:33;;;;;;;6.05;2.20;;;31.80;59.70;;;;;;5064924;28;20388;-88
2022/12/23 06:06:00;;;;;;;3.53;1.90;;;31.50;60.70;;;;;;5070861;28;20829;-90
2022/12/23 06:08:27;;;;;;;5.50;2.00;;;32.20;59.80;;;;;;5070860;28;20366;-89
2022/12/23 06:10:54;;;;;;;3.30;1.70;;;32.80;58.90;;;;;;5069865;28;20484;-89
2022/12/23 06:13:21;;;;;;;4.38;1.90;;;33.20;58.00;;;;;;5053286;28;20727;-86
2022/12/23 06:15:48;;;;;;;4.80;1.90;;;33.10;58.10;;;;;;5058877;28;20445;-86
2022/12/23 06:18:15;;;;;;;3.20;1.80;;;33.60;57.40;;;;;;5071181;28;20394;-87
2022/12/23 06:20:46;;;;;;;3.05;1.67;;;33.70;56.70;;;;;;5070930;28;20406;-88
2022/12/23 06:23:13;;;;;;;3.13;1.73;;;33.10;56.80;;;;;;5059069;28;20415;-88
2022/12/23 06:25:40;;;;;;;4.65;2.05;;;32.40;57.40;;;;;;5070859;28;21318;-86
2022/12/23 06:28:07;;;;;;;2.97;1.83;;;32.00;58.40;;;;;;5059570;28;20387;-87
2022/12/23 06:30:35;;;;;;;3.63;1.60;;;32.00;58.40;;;;;;5070671;28;20386;-86
2022/12/23 06:33:02;;;;;;;2.20;1.50;;;32.00;57.50;;;;;;5082637;28;20382;-89
2022/12/23 06:35:29;;;;;;;2.78;1.45;;;32.10;57.10;;;;;;5089764;28;20369;-87
2022/12/23 06:37:56;;;;;;;3.58;1.40;;;32.50;56.40;;;;;;5076803;28;20393;-87
2022/12/23 06:40:22;;;;;;;4.97;1.50;;;33.10;55.00;;;;;;5074795;28;20403;-85
2022/12/23 06:42:49;;;;;;;2.92;1.40;;;33.50;54.10;;;;;;5077189;28;20379;-87
2022/12/23 06:45:16;;;;;;;2.37;1.30;;;33.60;54.00;;;;;;5060092;28;20403;-84
2022/12/23 06:47:44;;;;;;;2.47;1.40;;;33.10;53.60;;;;;;5066394;28;20386;-84
2022/12/23 06:50:11;;;;;;;2.33;1.20;;;32.80;54.30;;;;;;5083692;28;20391;-85
2022/12/23 06:52:38;;;;;;;2.22;1.20;;;33.10;52.90;;;;;;5062316;28;20548;-86
2022/12/23 06:55:05;;;;;;;2.37;1.20;;;33.50;52.20;;;;;;5068584;28;20378;-84
2022/12/23 06:57:32;;;;;;;1.98;1.40;;;33.50;51.80;;;;;;5082893;28;20382;-88
2022/12/23 06:59:59;;;;;;;2.80;1.20;;;32.90;52.20;;;;;;5046666;28;20394;-85
2022/12/23 07:02:26;;;;;;;2.10;1.10;;;32.20;52.90;;;;;;5055118;28;20424;-85
2022/12/23 07:04:53;;;;;;;2.95;1.20;;;32.10;52.90;;;;;;5090095;28;20841;-84
2022/12/23 07:07:20;;;;;;;2.10;1.10;;;32.10;52.60;;;;;;5070079;28;20397;-82
2022/12/23 07:09:47;;;;;;;1.77;1.10;;;31.60;53.00;;;;;;5069125;28;20386;-84
2022/12/23 07:12:14;;;;;;;2.53;1.10;;;31.30;53.60;;;;;;5044012;28;20469;-84
2022/12/23 07:14:41;;;;;;;2.10;1.10;;;31.20;53.80;;;;;;5069949;28;20386;-85
2022/12/23 07:17:08;;;;;;;2.63;1.35;;;31.20;54.40;;;;;;5069962;28;20388;-88
2022/12/23 07:19:35;;;;;;;3.25;1.17;;;31.80;53.20;;;;;;5068879;28;20394;-85
2022/12/23 07:22:02;;;;;;;2.17;1.27;;;32.40;52.60;;;;;;5069004;28;20813;-89
2022/12/23 07:24:29;;;;;;;1.80;1.08;;;32.70;51.50;;;;;;5050107;28;20389;-88
2022/12/23 07:26:55;;;;;;;3.25;1.10;;;33.10;50.70;;;;;;5070350;28;20390;-86
2022/12/23 07:29:22;;;;;;;2.65;1.27;;;33.30;50.50;;;;;;5071166;28;20528;-91
2022/12/23 07:31:49;;;;;;;1.63;1.20;;;33.20;51.20;;;;;;5062691;28;20381;-89
2022/12/23 07:34:16;;;;;;;2.00;1.30;;;33.10;51.30;;;;;;5070188;28;20378;-90
2022/12/23 07:36:43;;;;;;;2.72;1.23;;;33.20;51.10;;;;;;5069230;28;20401;-88
2022/12/23 07:39:10;;;;;;;1.35;1.10;;;33.30;51.00;;;;;;5063413;28;20379;-87
2022/12/23 07:41:37;;;;;;;2.63;1.17;;;33.20;51.00;;;;;;5066499;28;20386;-87
2022/12/23 07:44:04;;;;;;;2.55;1.40;;;32.90;50.80;;;;;;5070203;28;20461;-89
2022/12/23 07:46:31;;;;;;;3.28;1.33;;;32.70;51.70;;;;;;5068646;28;20382;-90
2022/12/23 07:48:58;;;;;;;2.10;1.20;;;32.50;51.60;;;;;;5059661;28;20392;-89
2022/12/23 07:51:25;;;;;;;2.15;1.30;;;32.60;51.50;;;;;;5050967;28;20998;-86
2022/12/23 07:53:52;;;;;;;1.80;1.20;;;32.60;51.50;;;;;;5070411;28;20416;-88
2022/12/23 07:56:19;;;;;;;1.73;1.10;;;32.30;51.40;;;;;;5068826;28;20417;-88
2022/12/23 07:58:50;;;;;;;2.35;1.30;;;32.30;51.50;;;;;;5068383;28;20490;-86
2022/12/23 08:01:18;;;;;;;2.72;1.30;;;32.30;51.50;;;;;;5056305;28;20405;-91
2022/12/23 08:03:46;;;;;;;2.83;1.20;;;32.20;52.20;;;;;;5057420;28;20376;-89
2022/12/23 08:06:14;;;;;;;2.25;1.23;;;32.10;51.70;;;;;;5071614;28;20404;-88
2022/12/23 08:08:43;;;;;;;1.88;1.20;;;31.80;52.20;;;;;;5077531;28;20380;-84
2022/12/23 08:11:11;;;;;;;1.93;1.30;;;31.60;52.70;;;;;;5073905;28;20405;-86
2022/12/23 08:13:41;;;;;;;2.83;1.37;;;31.30;53.50;;;;;;5072550;28;20881;-87
2022/12/23 08:16:09;;;;;;;2.90;1.40;;;30.90;54.80;;;;;;5066185;28;20438;-88
2022/12/23 08:18:38;;;;;;;3.47;1.40;;;30.70;56.40;;;;;;5074568;28;20399;-89
2022/12/23 08:21:09;;;;;;;2.73;1.40;;;30.30;57.20;;;;;;5073101;28;20897;-87
2022/12/23 08:23:36;;;;;;;2.40;1.40;;;29.90;58.10;;;;;;5066076;28;20839;-87
2022/12/23 08:26:09;;;;;;;2.97;1.35;;;29.50;59.20;;;;;;5076079;28;20392;-89
2022/12/23 08:28:37;;;;;;;1.92;1.40;;;29.00;59.70;;;;;;5057255;28;20438;-88
2022/12/23 08:31:18;;;;;;;3.22;1.35;;;28.50;60.70;;;;;;5056252;28;20730;-86
2022/12/23 08:33:50;;;;;;;2.73;1.40;;;28.10;61.50;;;;;;5067378;28;20378;-86
2022/12/23 08:36:21;;;;;;;2.30;1.30;;;27.70;62.20;;;;;;5055169;28;20440;-86
2022/12/23 08:38:48;;;;;;;3.55;1.52;;;27.50;63.00;;;;;;5069532;28;20508;-86
2022/12/23 08:41:24;;;;;;;4.25;1.50;;;27.30;63.30;;;;;;5067656;28;20409;-85
2022/12/23 08:43:51;;;;;;;2.97;1.33;;;27.10;63.90;;;;;;5066624;28;20738;-86
2022/12/23 08:46:18;;;;;;;2.97;1.45;;;27.10;63.80;;;;;;5077792;28;20368;-86
2022/12/23 08:48:46;;;;;;;2.60;1.42;;;27.00;64.00;;;;;;5077983;28;20391;-88
2022/12/23 08:51:15;;;;;;;3.72;1.50;;;26.90;63.80;;;;;;5079392;28;20566;-87
2022/12/23 08:53:43;;;;;;;4.75;1.60;;;26.80;63.50;;;;;;5077880;28;20397;-87
2022/12/23 08:56:13;;;;;;;2.97;1.20;;;26.60;63.70;;;;;;5047384;28;20393;-87
2022/12/23 08:58:44;;;;;;;3.22;1.48;;;26.40;63.90;;;;;;5073675;28;20870;-89
2022/12/23 09:01:13;;;;;;;2.55;1.30;;;26.30;63.90;;;;;;5079092;28;20404;-88
2022/12/23 09:03:40;;;;;;;2.83;1.40;;;26.20;64.40;;;;;;5086291;28;20388;-86
2022/12/23 09:06:10;;;;;;;2.47;1.40;;;26.00;64.80;;;;;;5071331;28;20526;-88
2022/12/23 09:08:38;;;;;;;3.40;1.50;;;25.80;65.20;;;;;;5091637;28;20375;-87
2022/12/23 09:11:09;;;;;;;2.85;1.40;;;25.70;65.80;;;;;;5092255;28;20384;-90
2022/12/23 09:13:36;;;;;;;2.72;1.50;;;25.60;66.40;;;;;;5068795;28;20413;-89
2022/12/23 09:16:04;;;;;;;2.45;1.40;;;25.50;66.80;;;;;;5083485;28;20515;-87
2022/12/23 09:18:31;;;;;;;2.65;1.48;;;25.50;67.10;;;;;;5079319;28;20483;-86
2022/12/23 09:21:06;;;;;;;3.30;1.30;;;25.40;67.70;;;;;;5068960;28;20500;-88
2022/12/23 09:23:33;;;;;;;3.17;1.40;;;25.40;68.00;;;;;;5069751;28;20366;-89
2022/12/23 09:26:01;;;;;;;2.63;1.47;;;25.30;68.10;;;;;;5072364;28;20389;-85
2022/12/23 09:28:27;;;;;;;2.40;1.50;;;25.20;68.50;;;;;;5062606;28;20931;-84
2022/12/23 09:30:54;;;;;;;3.80;1.60;;;25.00;69.20;;;;;;5065433;28;20479;-85
2022/12/23 09:33:22;;;;;;;2.38;1.50;;;24.80;70.00;;;;;;5083253;28;20370;-83
2022/12/23 09:35:49;;;;;;;2.78;1.60;;;24.70;70.60;;;;;;5069218;28;20715;-83
2022/12/23 09:38:16;;;;;;;2.88;1.55;;;24.60;71.00;;;;;;5068405;28;20378;-85
2022/12/23 09:40:44;;;;;;;2.92;1.50;;;24.60;71.40;;;;;;5067380;28;20408;-84
2022/12/23 09:43:32;;;;;;;3.80;1.50;;;24.50;71.60;;;;;;5065464;28;20382;-86
2022/12/23 09:46:15;;;;;;;3.33;1.50;;;24.50;72.90;;;;;;5069469;28;20378;-85
2022/12/23 09:48:56;;;;;;;3.13;1.60;;;24.40;72.20;;;;;;5066549;28;20424;-87
2022/12/23 09:51:23;;;;;;;2.60;1.50;;;24.40;72.60;;;;;;5052495;28;20389;-86
2022/12/23 09:54:27;;;;;;;3.30;1.70;;;24.30;72.90;;;;;;5070690;28;20884;-86
2022/12/23 09:56:57;;;;;;;2.72;1.30;;;24.30;73.10;;;;;;5082866;28;20388;-87
2022/12/23 09:59:51;;;;;;;3.58;1.67;;;24.20;73.20;;;;;;5071170;28;20370;-87
2022/12/23 10:02:39;;;;;;;3.75;1.60;;;24.10;73.50;;;;;;5071434;28;20730;-87
2022/12/23 10:05:24;;;;;;;2.67;1.67;;;24.00;73.80;;;;;;5071396;28;20402;-87
2022/12/23 10:08:11;;;;;;;4.05;1.60;;;24.00;74.20;;;;;;5059668;28;21044;-87
2022/12/23 10:10:47;;;;;;;4.17;1.60;;;24.00;74.50;;;;;;5068817;28;20947;-86
2022/12/23 10:13:33;;;;;;;3.53;1.70;;;23.90;74.90;;;;;;5071119;28;20730;-87
2022/12/23 10:16:10;;;;;;;3.13;1.67;;;23.80;75.30;;;;;;5058625;28;20469;-86
2022/12/23 10:18:41;;;;;;;5.57;1.50;;;25.30;76.60;;;;;;5060180;28;20782;-87
2022/12/23 10:21:27;;;;;;;4.05;1.58;;;23.70;76.00;;;;;;5068485;28;20463;-86
2022/12/23 10:23:55;;;;;;;2.97;1.52;;;23.70;76.30;;;;;;5070762;28;20371;-86
2022/12/23 10:26:49;;;;;;;2.57;1.63;;;23.70;76.60;;;;;;5057647;28;20383;-86
2022/12/23 10:29:25;;;;;;;3.53;1.80;;;23.60;76.90;;;;;;4969466;28;20405;-85
2022/12/23 10:32:00;;;;;;;3.00;1.67;;;23.60;77.30;;;;;;4969140;28;21288;-85
2022/12/23 10:34:49;;;;;;;4.22;1.65;;;23.50;77.70;;;;;;4969200;28;20390;-86
2022/12/23 10:37:56;;;;;;;3.08;1.63;;;23.40;78.20;;;;;;4964500;28;20445;-86
2022/12/23 10:40:37;;;;;;;3.80;1.70;;;23.40;78.80;;;;;;4912422;29;20423;-87
2022/12/23 10:43:18;;;;;;;3.83;1.83;;;23.30;78.90;;;;;;4912128;29;20423;-86
2022/12/23 10:45:51;;;;;;;3.33;1.70;;;23.30;79.30;;;;;;4912076;29;20443;-86
2022/12/23 10:48:52;;;;;;;3.00;1.70;;;23.20;79.50;;;;;;4912649;29;20379;-86
2022/12/23 10:51:30;;;;;;;3.33;1.80;;;23.20;80.00;;;;;;4911977;29;20399;-86
2022/12/23 10:54:00;;;;;;;6.60;2.10;;;23.10;80.40;;;;;;4911965;29;20407;-86
2022/12/23 10:56:29;;;;;;;3.42;1.90;;;23.10;80.70;;;;;;4905943;29;20506;-87
2022/12/23 10:58:59;;;;;;;3.72;1.90;;;23.10;80.70;;;;;;4908168;29;20395;-87
2022/12/23 11:01:29;;;;;;;3.53;1.90;;;23.00;80.70;;;;;;4910699;29;20544;-88
2022/12/23 11:04:20;;;;;;;4.03;1.98;;;23.00;81.20;;;;;;4916593;29;20722;-88
2022/12/23 11:06:50;;;;;;;3.55;1.75;;;23.00;81.50;;;;;;4972720;28;21009;-87
2022/12/23 11:09:21;;;;;;;4.10;1.60;;;22.90;82.00;;;;;;4979440;28;20773;-87
2022/12/23 11:12:06;;;;;;;2.63;1.70;;;22.80;82.60;;;;;;4986956;28;20552;-87
2022/12/23 11:14:48;;;;;;;3.63;1.80;;;22.70;83.00;;;;;;4983131;28;20396;-87
2022/12/23 11:17:28;;;;;;;3.33;1.93;;;22.60;83.30;;;;;;5068161;28;20386;-88
2022/12/23 11:20:18;;;;;;;3.17;1.93;;;22.60;83.70;;;;;;5047798;28;20778;-87
2022/12/23 11:22:52;;;;;;;4.40;2.00;;;22.50;84.40;;;;;;5067332;28;20384;-87
2022/12/23 11:25:36;;;;;;;4.27;1.90;;;22.60;84.80;;;;;;5069490;28;20468;-86
2022/12/23 11:28:20;;;;;;;4.47;2.10;;;22.60;85.10;;;;;;5065737;28;20475;-86
2022/12/23 11:31:08;;;;;;;3.70;1.90;;;22.60;85.40;;;;;;5055540;28;20376;-88
2022/12/23 11:33:55;;;;;;;3.97;2.00;;;22.70;85.80;;;;;;5059219;28;20747;-87
2022/12/23 11:36:24;;;;;;;4.03;2.20;;;22.70;85.90;;;;;;5069384;28;20389;-87
2022/12/23 11:39:03;;;;;;;4.85;2.10;;;22.60;86.30;;;;;;5065750;28;20465;-88
2022/12/23 11:41:46;;;;;;;4.60;2.00;;;22.60;86.60;;;;;;5067753;28;20409;-87
2022/12/23 11:44:39;;;;;;;4.63;2.20;;;22.60;87.20;;;;;;5071567;28;20370;-87
2022/12/23 11:47:34;;;;;;;3.50;2.05;;;22.60;87.70;;;;;;5067710;28;20897;-88
2022/12/23 11:50:22;;;;;;;4.27;2.10;;;22.50;88.00;;;;;;5074350;28;20383;-87
2022/12/23 11:52:54;;;;;;;3.50;2.00;;;22.40;88.70;;;;;;5065742;28;20403;-86
2022/12/23 11:55:31;;;;;;;4.43;2.10;;;22.30;89.60;;;;;;5075404;28;20373;-87
2022/12/23 11:58:01;;;;;;;4.30;2.33;;;22.30;90.50;;;;;;5072754;28;20409;-86
2022/12/23 12:00:33;;;;;;;4.05;1.98;;;22.20;90.90;;;;;;5070138;28;20398;-86
2022/12/23 12:03:03;;;;;;;5.63;2.03;;;22.10;91.30;;;;;;5069647;28;20429;-86
2022/12/23 12:05:45;;;;;;;7.38;2.47;;;22.10;91.80;;;;;;5077597;28;20376;-87
2022/12/23 12:08:21;;;;;;;6.22;2.30;;;22.10;92.30;;;;;;5076600;28;20401;-86
2022/12/23 12:10:52;;;;;;;6.50;2.27;;;22.00;92.80;;;;;;5066713;28;20386;-87
2022/12/23 12:13:44;;;;;;;11.35;2.63;;;22.00;93.20;;;;;;5067771;28;20444;-85
2022/12/23 12:16:29;;;;;;;12.23;2.67;;;21.90;93.80;;;;;;5053952;28;20477;-86
2022/12/23 12:19:10;;;;;;;18.95;2.97;;;21.80;94.30;;;;;;5074593;28;20402;-86
2022/12/23 12:21:38;;;;;;;20.58;3.13;;;21.70;95.20;;;;;;5075537;28;20405;-87
2022/12/23 12:24:40;;;;;;;18.97;3.13;;;21.70;95.60;;;;;;5075146;28;20548;-86
2022/12/23 12:27:10;;;;;;;17.83;3.03;;;21.70;96.20;;;;;;4975514;28;20394;-87
2022/12/23 12:29:55;;;;;;;14.27;3.05;;;21.60;96.70;;;;;;4975017;28;20430;-88
2022/12/23 12:32:26;;;;;;;14.52;2.90;;;21.60;97.50;;;;;;4971964;28;20965;-88
2022/12/23 12:35:05;;;;;;;13.77;2.97;;;21.50;98.00;;;;;;4960778;28;20829;-86
2022/12/23 12:37:52;;;;;;;19.52;3.50;;;21.50;98.40;;;;;;4973011;28;20422;-87
2022/12/23 12:40:30;;;;;;;21.63;3.67;;;21.40;98.80;;;;;;4957654;28;20430;-86
2022/12/23 12:43:26;;;;;;;22.08;3.50;;;21.40;99.10;;;;;;4975396;28;20421;-86
2022/12/23 12:46:20;;;;;;;29.13;3.70;;;21.40;99.40;;;;;;4972661;28;20405;-85
2022/12/23 12:48:57;;;;;;;22.52;3.47;;;21.40;99.60;;;;;;4975389;28;20422;-86
2022/12/23 12:51:53;;;;;;;24.95;4.00;;;21.40;99.90;;;;;;4974472;28;20433;-86
2022/12/23 12:54:32;;;;;;;28.90;3.83;;;21.30;99.90;;;;;;4976665;28;20472;-86
2022/12/23 12:57:01;;;;;;;16.77;3.17;;;21.10;99.90;;;;;;4970828;28;21188;-86
2022/12/23 12:59:33;;;;;;;14.63;3.40;;;21.00;99.90;;;;;;4971921;28;20390;-86
2022/12/23 13:02:34;;;;;;;13.50;3.10;;;20.90;99.90;;;;;;4972194;28;20413;-86
2022/12/23 13:05:27;;;;;;;11.65;3.03;;;20.80;99.90;;;;;;5076940;28;20401;-86
2022/12/23 13:08:21;;;;;;;13.45;3.40;;;20.80;99.90;;;;;;5066898;28;20368;-86
2022/12/23 13:10:50;;;;;;;8.33;3.10;;;20.70;99.90;;;;;;5086008;28;20385;-86
2022/12/23 13:13:23;;;;;;;10.27;3.10;;;20.80;99.90;;;;;;5064652;28;20755;-87
2022/12/23 13:16:09;;;;;;;10.82;3.22;;;20.70;99.90;;;;;;5066392;28;20382;-86
2022/12/23 13:18:39;;;;;;;8.43;3.03;;;20.70;99.90;;;;;;5074891;28;20444;-86
2022/12/23 13:21:34;;;;;;;8.33;3.10;;;20.70;99.90;;;;;;5084898;28;20451;-86
2022/12/23 13:24:32;;;;;;;9.65;3.10;;;20.70;99.90;;;;;;5073784;28;20385;-86
2022/12/23 13:27:13;;;;;;;7.95;2.90;;;20.60;99.90;;;;;;5060097;28;20394;-87
2022/12/23 13:30:05;;;;;;;11.73;3.20;;;20.60;99.90;;;;;;5070979;28;20370;-86
2022/12/23 13:32:54;;;;;;;15.02;3.70;;;20.50;99.90;;;;;;5072813;28;20412;-87
2022/12/23 13:35:42;;;;;;;32.78;4.82;;;20.50;99.90;;;;;;5060803;28;20370;-85
2022/12/23 13:38:44;;;;;;;30.58;4.60;;;20.50;99.90;;;;;;5074131;28;20378;-86
2022/12/23 13:41:43;;;;;;;22.58;4.32;;;20.50;99.90;;;;;;5018047;28;20944;-85
2022/12/23 13:44:13;;;;;;;16.80;3.90;;;20.40;99.90;;;;;;5017894;28;20422;-85
2022/12/23 13:46:58;;;;;;;20.83;4.47;;;20.40;99.90;;;;;;5010164;28;20838;-86
2022/12/23 13:49:40;;;;;;;22.20;4.37;;;20.40;99.90;;;;;;5013788;28;20486;-85
2022/12/23 13:52:16;;;;;;;21.73;4.28;;;20.30;99.90;;;;;;5010926;28;20383;-86